sensor_id;sensor_type;location;lat;lon;timestamp;P1;durP1;ratioP1;P2;durP2;ratioP2
72198;SDS011;60103;51.014;16.992;2023-06-26T00:00:30;11.50;;;5.50;;
72198;SDS011;60103;51.014;16.992;2023-06-26T00:03:20;11.30;;;5.70;;
72198;SDS011;60103;51.014;16.992;2023-06-26T00:05:49;12.30;;;5.80;;
72198;SDS011;60103;51.014;16.992;2023-06-26T00:08:18;12.80;;;5.90;;
72198;SDS011;60103;51.014;16.992;2023-06-26T00:10:47;12.40;;;5.80;;
72198;SDS011;60103;51.014;16.992;2023-06-26T00:13:19;12.90;;;5.30;;
72198;SDS011;60103;51.014;16.992;2023-06-26T00:15:50;14.30;;;5.80;;
72198;SDS011;60103;51.014;16.992;2023-06-26T00:18:19;12.20;;;6.00;;
72198;SDS011;60103;51.014;16.992;2023-06-26T00:20:48;13.90;;;5.80;;
72198;SDS011;60103;51.014;16.992;2023-06-26T00:23:17;15.50;;;6.20;;
72198;SDS011;60103;51.014;16.992;2023-06-26T00:25:46;11.90;;;5.30;;
72198;SDS011;60103;51.014;16.992;2023-06-26T00:28:16;14.50;;;5.70;;
72198;SDS011;60103;51.014;16.992;2023-06-26T00:30:45;12.40;;;5.90;;
72198;SDS011;60103;51.014;16.992;2023-06-26T00:33:14;13.40;;;5.50;;
72198;SDS011;60103;51.014;16.992;2023-06-26T00:35:44;15.00;;;5.60;;
72198;SDS011;60103;51.014;16.992;2023-06-26T00:38:12;13.50;;;5.60;;
72198;SDS011;60103;51.014;16.992;2023-06-26T00:40:41;13.10;;;5.60;;
72198;SDS011;60103;51.014;16.992;2023-06-26T00:43:10;13.50;;;5.80;;
72198;SDS011;60103;51.014;16.992;2023-06-26T00:45:39;12.00;;;6.20;;
72198;SDS011;60103;51.014;16.992;2023-06-26T00:48:10;14.00;;;6.20;;
72198;SDS011;60103;51.014;16.992;2023-06-26T00:50:42;12.20;;;6.00;;
72198;SDS011;60103;51.014;16.992;2023-06-26T00:53:12;14.00;;;5.80;;
72198;SDS011;60103;51.014;16.992;2023-06-26T00:55:41;13.50;;;6.00;;
72198;SDS011;60103;51.014;16.992;2023-06-26T00:58:10;11.90;;;6.10;;
72198;SDS011;60103;51.014;16.992;2023-06-26T01:00:39;13.90;;;6.60;;
72198;SDS011;60103;51.014;16.992;2023-06-26T01:03:09;13.20;;;6.60;;
72198;SDS011;60103;51.014;16.992;2023-06-26T01:05:38;16.40;;;6.50;;
72198;SDS011;60103;51.014;16.992;2023-06-26T01:08:07;13.40;;;6.40;;
72198;SDS011;60103;51.014;16.992;2023-06-26T01:10:36;12.10;;;5.80;;
72198;SDS011;60103;51.014;16.992;2023-06-26T01:13:05;12.30;;;5.80;;
72198;SDS011;60103;51.014;16.992;2023-06-26T01:15:34;11.90;;;5.60;;
72198;SDS011;60103;51.014;16.992;2023-06-26T01:18:04;16.20;;;5.90;;
72198;SDS011;60103;51.014;16.992;2023-06-26T01:20:38;13.90;;;6.10;;
72198;SDS011;60103;51.014;16.992;2023-06-26T01:28:38;12.00;;;5.60;;
72198;SDS011;60103;51.014;16.992;2023-06-26T01:31:12;12.20;;;5.90;;
72198;SDS011;60103;51.014;16.992;2023-06-26T01:33:42;13.00;;;5.80;;
72198;SDS011;60103;51.014;16.992;2023-06-26T01:36:11;11.30;;;5.70;;
72198;SDS011;60103;51.014;16.992;2023-06-26T01:38:40;12.80;;;5.50;;
72198;SDS011;60103;51.014;16.992;2023-06-26T01:41:09;13.80;;;5.50;;
72198;SDS011;60103;51.014;16.992;2023-06-26T01:46:23;11.40;;;5.30;;
72198;SDS011;60103;51.014;16.992;2023-06-26T01:49:26;12.60;;;5.60;;
72198;SDS011;60103;51.014;16.992;2023-06-26T01:52:07;15.20;;;5.80;;
72198;SDS011;60103;51.014;16.992;2023-06-26T01:54:49;12.40;;;5.70;;
72198;SDS011;60103;51.014;16.992;2023-06-26T01:57:26;13.80;;;5.60;;
72198;SDS011;60103;51.014;16.992;2023-06-26T01:59:56;13.60;;;6.20;;
72198;SDS011;60103;51.014;16.992;2023-06-26T02:02:28;12.10;;;5.60;;
72198;SDS011;60103;51.014;16.992;2023-06-26T02:04:57;12.50;;;6.20;;
72198;SDS011;60103;51.014;16.992;2023-06-26T02:07:27;11.20;;;5.60;;
72198;SDS011;60103;51.014;16.992;2023-06-26T02:09:57;12.30;;;5.70;;
72198;SDS011;60103;51.014;16.992;2023-06-26T02:12:25;14.60;;;5.90;;
72198;SDS011;60103;51.014;16.992;2023-06-26T02:14:54;13.80;;;6.10;;
72198;SDS011;60103;51.014;16.992;2023-06-26T02:17:24;12.90;;;6.60;;
72198;SDS011;60103;51.014;16.992;2023-06-26T02:19:55;12.90;;;5.80;;
72198;SDS011;60103;51.014;16.992;2023-06-26T02:22:24;13.40;;;6.00;;
72198;SDS011;60103;51.014;16.992;2023-06-26T02:24:52;12.40;;;6.00;;
72198;SDS011;60103;51.014;16.992;2023-06-26T02:27:21;16.30;;;6.00;;
72198;SDS011;60103;51.014;16.992;2023-06-26T02:29:50;14.30;;;6.10;;
72198;SDS011;60103;51.014;16.992;2023-06-26T02:32:19;11.60;;;5.30;;
72198;SDS011;60103;51.014;16.992;2023-06-26T02:34:50;12.50;;;6.20;;
72198;SDS011;60103;51.014;16.992;2023-06-26T02:37:20;12.40;;;6.20;;
72198;SDS011;60103;51.014;16.992;2023-06-26T02:39:49;15.20;;;6.80;;
72198;SDS011;60103;51.014;16.992;2023-06-26T02:42:18;13.90;;;5.70;;
72198;SDS011;60103;51.014;16.992;2023-06-26T02:44:47;13.60;;;5.80;;
72198;SDS011;60103;51.014;16.992;2023-06-26T02:47:16;15.50;;;6.60;;
72198;SDS011;60103;51.014;16.992;2023-06-26T02:49:45;16.00;;;6.70;;
72198;SDS011;60103;51.014;16.992;2023-06-26T02:52:14;13.90;;;6.30;;
72198;SDS011;60103;51.014;16.992;2023-06-26T02:54:42;15.20;;;6.50;;
72198;SDS011;60103;51.014;16.992;2023-06-26T02:57:12;16.10;;;6.90;;
72198;SDS011;60103;51.014;16.992;2023-06-26T02:59:43;15.20;;;6.40;;
72198;SDS011;60103;51.014;16.992;2023-06-26T03:02:12;16.00;;;6.30;;
72198;SDS011;60103;51.014;16.992;2023-06-26T03:04:44;16.20;;;6.90;;
72198;SDS011;60103;51.014;16.992;2023-06-26T03:07:14;13.30;;;6.60;;
72198;SDS011;60103;51.014;16.992;2023-06-26T03:09:43;16.40;;;6.80;;
72198;SDS011;60103;51.014;16.992;2023-06-26T03:12:12;16.70;;;6.50;;
72198;SDS011;60103;51.014;16.992;2023-06-26T03:14:42;14.50;;;6.20;;
72198;SDS011;60103;51.014;16.992;2023-06-26T03:17:14;16.40;;;6.20;;
72198;SDS011;60103;51.014;16.992;2023-06-26T03:19:43;14.80;;;6.50;;
72198;SDS011;60103;51.014;16.992;2023-06-26T03:22:22;13.80;;;6.10;;
72198;SDS011;60103;51.014;16.992;2023-06-26T03:24:50;13.10;;;6.30;;
72198;SDS011;60103;51.014;16.992;2023-06-26T03:27:20;13.80;;;6.10;;
72198;SDS011;60103;51.014;16.992;2023-06-26T03:29:52;13.10;;;5.50;;
72198;SDS011;60103;51.014;16.992;2023-06-26T03:32:22;13.70;;;5.70;;
72198;SDS011;60103;51.014;16.992;2023-06-26T03:34:51;14.60;;;6.10;;
72198;SDS011;60103;51.014;16.992;2023-06-26T03:37:21;14.10;;;6.10;;
72198;SDS011;60103;51.014;16.992;2023-06-26T03:39:50;12.70;;;5.80;;
72198;SDS011;60103;51.014;16.992;2023-06-26T03:42:19;14.50;;;5.70;;
72198;SDS011;60103;51.014;16.992;2023-06-26T03:44:48;12.40;;;5.90;;
72198;SDS011;60103;51.014;16.992;2023-06-26T03:47:18;13.30;;;5.10;;
72198;SDS011;60103;51.014;16.992;2023-06-26T03:49:47;12.70;;;5.40;;
72198;SDS011;60103;51.014;16.992;2023-06-26T03:52:16;13.80;;;5.90;;
72198;SDS011;60103;51.014;16.992;2023-06-26T03:54:45;13.90;;;5.50;;
72198;SDS011;60103;51.014;16.992;2023-06-26T03:57:17;11.80;;;5.40;;
72198;SDS011;60103;51.014;16.992;2023-06-26T03:59:47;11.20;;;5.50;;
72198;SDS011;60103;51.014;16.992;2023-06-26T04:02:19;12.90;;;5.30;;
72198;SDS011;60103;51.014;16.992;2023-06-26T04:04:48;11.30;;;5.40;;
72198;SDS011;60103;51.014;16.992;2023-06-26T04:07:17;11.70;;;5.60;;
72198;SDS011;60103;51.014;16.992;2023-06-26T04:09:47;11.40;;;5.40;;
72198;SDS011;60103;51.014;16.992;2023-06-26T04:12:15;13.00;;;5.70;;
72198;SDS011;60103;51.014;16.992;2023-06-26T04:14:44;13.50;;;5.90;;
72198;SDS011;60103;51.014;16.992;2023-06-26T04:17:13;13.60;;;5.30;;
72198;SDS011;60103;51.014;16.992;2023-06-26T04:19:43;12.20;;;5.40;;
72198;SDS011;60103;51.014;16.992;2023-06-26T04:22:22;15.40;;;5.40;;
72198;SDS011;60103;51.014;16.992;2023-06-26T04:24:53;12.20;;;5.30;;
72198;SDS011;60103;51.014;16.992;2023-06-26T04:27:23;14.60;;;5.30;;
72198;SDS011;60103;51.014;16.992;2023-06-26T04:29:51;11.70;;;5.70;;
72198;SDS011;60103;51.014;16.992;2023-06-26T04:32:20;12.70;;;5.10;;
72198;SDS011;60103;51.014;16.992;2023-06-26T04:34:49;12.80;;;5.30;;
72198;SDS011;60103;51.014;16.992;2023-06-26T04:37:18;16.30;;;5.40;;
72198;SDS011;60103;51.014;16.992;2023-06-26T04:39:48;14.30;;;5.50;;
72198;SDS011;60103;51.014;16.992;2023-06-26T04:42:18;11.10;;;5.70;;
72198;SDS011;60103;51.014;16.992;2023-06-26T04:44:49;11.60;;;5.40;;
72198;SDS011;60103;51.014;16.992;2023-06-26T04:47:18;12.70;;;5.80;;
72198;SDS011;60103;51.014;16.992;2023-06-26T04:49:47;12.60;;;5.40;;
72198;SDS011;60103;51.014;16.992;2023-06-26T04:52:16;14.60;;;6.00;;
72198;SDS011;60103;51.014;16.992;2023-06-26T04:54:45;13.30;;;5.80;;
72198;SDS011;60103;51.014;16.992;2023-06-26T04:57:14;13.60;;;5.40;;
72198;SDS011;60103;51.014;16.992;2023-06-26T04:59:43;12.80;;;5.40;;
72198;SDS011;60103;51.014;16.992;2023-06-26T05:02:12;12.30;;;5.30;;
72198;SDS011;60103;51.014;16.992;2023-06-26T05:04:43;13.00;;;5.80;;
72198;SDS011;60103;51.014;16.992;2023-06-26T05:07:12;13.40;;;5.30;;
72198;SDS011;60103;51.014;16.992;2023-06-26T05:09:41;13.30;;;5.20;;
72198;SDS011;60103;51.014;16.992;2023-06-26T05:12:10;16.00;;;5.90;;
72198;SDS011;60103;51.014;16.992;2023-06-26T05:14:40;14.10;;;5.40;;
72198;SDS011;60103;51.014;16.992;2023-06-26T05:17:09;11.80;;;5.50;;
72198;SDS011;60103;51.014;16.992;2023-06-26T05:19:39;13.30;;;5.30;;
72198;SDS011;60103;51.014;16.992;2023-06-26T05:22:10;12.20;;;5.10;;
72198;SDS011;60103;51.014;16.992;2023-06-26T05:24:40;13.90;;;5.50;;
72198;SDS011;60103;51.014;16.992;2023-06-26T05:27:09;12.70;;;5.10;;
72198;SDS011;60103;51.014;16.992;2023-06-26T05:29:38;11.90;;;5.00;;
72198;SDS011;60103;51.014;16.992;2023-06-26T05:32:08;12.20;;;5.00;;
72198;SDS011;60103;51.014;16.992;2023-06-26T05:34:37;11.20;;;4.90;;
72198;SDS011;60103;51.014;16.992;2023-06-26T05:37:06;13.60;;;4.70;;
72198;SDS011;60103;51.014;16.992;2023-06-26T05:39:35;10.20;;;4.50;;
72198;SDS011;60103;51.014;16.992;2023-06-26T05:42:05;13.30;;;4.80;;
72198;SDS011;60103;51.014;16.992;2023-06-26T05:44:35;10.50;;;4.50;;
72198;SDS011;60103;51.014;16.992;2023-06-26T05:47:04;12.70;;;5.00;;
72198;SDS011;60103;51.014;16.992;2023-06-26T05:49:34;12.40;;;4.70;;
72198;SDS011;60103;51.014;16.992;2023-06-26T05:52:03;12.50;;;4.10;;
72198;SDS011;60103;51.014;16.992;2023-06-26T05:54:33;9.30;;;4.10;;
72198;SDS011;60103;51.014;16.992;2023-06-26T05:57:02;10.50;;;4.70;;
72198;SDS011;60103;51.014;16.992;2023-06-26T05:59:33;11.10;;;4.60;;
72198;SDS011;60103;51.014;16.992;2023-06-26T06:02:08;10.50;;;4.40;;
72198;SDS011;60103;51.014;16.992;2023-06-26T06:04:37;10.90;;;4.70;;
72198;SDS011;60103;51.014;16.992;2023-06-26T06:07:14;10.80;;;4.30;;
72198;SDS011;60103;51.014;16.992;2023-06-26T06:09:43;10.70;;;4.60;;
72198;SDS011;60103;51.014;16.992;2023-06-26T06:12:12;10.90;;;4.60;;
72198;SDS011;60103;51.014;16.992;2023-06-26T06:14:40;9.50;;;4.00;;
72198;SDS011;60103;51.014;16.992;2023-06-26T06:17:09;9.80;;;4.40;;
72198;SDS011;60103;51.014;16.992;2023-06-26T06:19:38;11.30;;;4.40;;
72198;SDS011;60103;51.014;16.992;2023-06-26T06:22:08;13.80;;;4.30;;
72198;SDS011;60103;51.014;16.992;2023-06-26T06:24:37;11.40;;;4.50;;
72198;SDS011;60103;51.014;16.992;2023-06-26T06:27:06;9.30;;;4.10;;
72198;SDS011;60103;51.014;16.992;2023-06-26T06:29:35;9.70;;;4.80;;
72198;SDS011;60103;51.014;16.992;2023-06-26T06:32:07;9.70;;;3.90;;
72198;SDS011;60103;51.014;16.992;2023-06-26T06:34:36;10.00;;;4.10;;
72198;SDS011;60103;51.014;16.992;2023-06-26T06:37:05;10.00;;;3.90;;
72198;SDS011;60103;51.014;16.992;2023-06-26T06:39:37;9.20;;;4.30;;
72198;SDS011;60103;51.014;16.992;2023-06-26T06:42:06;11.00;;;3.50;;
72198;SDS011;60103;51.014;16.992;2023-06-26T06:44:36;10.20;;;3.90;;
72198;SDS011;60103;51.014;16.992;2023-06-26T06:47:05;9.20;;;4.40;;
72198;SDS011;60103;51.014;16.992;2023-06-26T06:49:35;9.40;;;3.90;;
72198;SDS011;60103;51.014;16.992;2023-06-26T06:52:04;8.90;;;4.10;;
72198;SDS011;60103;51.014;16.992;2023-06-26T06:54:57;9.90;;;3.80;;
72198;SDS011;60103;51.014;16.992;2023-06-26T06:57:37;9.40;;;3.80;;
72198;SDS011;60103;51.014;16.992;2023-06-26T07:00:09;10.50;;;4.20;;
72198;SDS011;60103;51.014;16.992;2023-06-26T07:02:42;9.70;;;3.60;;
72198;SDS011;60103;51.014;16.992;2023-06-26T07:05:13;12.10;;;4.10;;
72198;SDS011;60103;51.014;16.992;2023-06-26T07:07:42;7.80;;;3.20;;
72198;SDS011;60103;51.014;16.992;2023-06-26T07:10:11;10.30;;;3.80;;
72198;SDS011;60103;51.014;16.992;2023-06-26T07:12:41;10.20;;;3.90;;
72198;SDS011;60103;51.014;16.992;2023-06-26T07:15:10;8.10;;;3.80;;
72198;SDS011;60103;51.014;16.992;2023-06-26T07:17:39;11.20;;;3.80;;
72198;SDS011;60103;51.014;16.992;2023-06-26T07:20:08;8.10;;;3.60;;
72198;SDS011;60103;51.014;16.992;2023-06-26T07:22:43;8.20;;;3.90;;
72198;SDS011;60103;51.014;16.992;2023-06-26T07:25:19;9.40;;;3.90;;
72198;SDS011;60103;51.014;16.992;2023-06-26T07:27:51;9.30;;;3.20;;
72198;SDS011;60103;51.014;16.992;2023-06-26T07:30:19;9.50;;;3.50;;
72198;SDS011;60103;51.014;16.992;2023-06-26T07:32:48;8.20;;;3.60;;
72198;SDS011;60103;51.014;16.992;2023-06-26T07:35:17;8.00;;;3.90;;
72198;SDS011;60103;51.014;16.992;2023-06-26T07:37:46;9.60;;;4.20;;
72198;SDS011;60103;51.014;16.992;2023-06-26T07:40:15;7.90;;;3.70;;
72198;SDS011;60103;51.014;16.992;2023-06-26T07:42:46;8.80;;;3.50;;
72198;SDS011;60103;51.014;16.992;2023-06-26T07:45:23;8.40;;;3.50;;
72198;SDS011;60103;51.014;16.992;2023-06-26T07:47:54;8.10;;;3.90;;
72198;SDS011;60103;51.014;16.992;2023-06-26T07:50:27;10.30;;;3.20;;
72198;SDS011;60103;51.014;16.992;2023-06-26T07:52:57;8.00;;;3.40;;
72198;SDS011;60103;51.014;16.992;2023-06-26T07:55:27;8.50;;;3.20;;
72198;SDS011;60103;51.014;16.992;2023-06-26T07:57:57;7.60;;;3.30;;
72198;SDS011;60103;51.014;16.992;2023-06-26T08:00:26;8.60;;;3.00;;
72198;SDS011;60103;51.014;16.992;2023-06-26T08:02:56;8.70;;;3.60;;
72198;SDS011;60103;51.014;16.992;2023-06-26T08:05:26;8.80;;;3.10;;
72198;SDS011;60103;51.014;16.992;2023-06-26T08:07:58;8.30;;;3.50;;
72198;SDS011;60103;51.014;16.992;2023-06-26T08:10:28;9.90;;;4.00;;
72198;SDS011;60103;51.014;16.992;2023-06-26T08:12:58;9.10;;;3.90;;
72198;SDS011;60103;51.014;16.992;2023-06-26T08:15:27;7.90;;;3.40;;
72198;SDS011;60103;51.014;16.992;2023-06-26T08:17:56;8.20;;;3.70;;
72198;SDS011;60103;51.014;16.992;2023-06-26T08:20:27;8.50;;;3.70;;
72198;SDS011;60103;51.014;16.992;2023-06-26T08:22:56;9.50;;;3.80;;
72198;SDS011;60103;51.014;16.992;2023-06-26T08:25:26;8.40;;;3.20;;
72198;SDS011;60103;51.014;16.992;2023-06-26T08:27:57;8.10;;;3.50;;
72198;SDS011;60103;51.014;16.992;2023-06-26T08:30:26;9.40;;;4.10;;
72198;SDS011;60103;51.014;16.992;2023-06-26T08:32:56;10.50;;;3.50;;
72198;SDS011;60103;51.014;16.992;2023-06-26T08:35:26;7.40;;;3.10;;
72198;SDS011;60103;51.014;16.992;2023-06-26T08:37:55;8.40;;;3.60;;
72198;SDS011;60103;51.014;16.992;2023-06-26T08:40:23;9.20;;;3.50;;
72198;SDS011;60103;51.014;16.992;2023-06-26T08:42:55;9.80;;;3.90;;
72198;SDS011;60103;51.014;16.992;2023-06-26T08:45:24;8.90;;;2.90;;
72198;SDS011;60103;51.014;16.992;2023-06-26T08:47:59;10.40;;;3.40;;
72198;SDS011;60103;51.014;16.992;2023-06-26T08:50:30;9.80;;;3.30;;
72198;SDS011;60103;51.014;16.992;2023-06-26T08:55:41;9.30;;;3.40;;
72198;SDS011;60103;51.014;16.992;2023-06-26T08:58:10;8.70;;;3.30;;
72198;SDS011;60103;51.014;16.992;2023-06-26T09:00:42;7.40;;;3.10;;
72198;SDS011;60103;51.014;16.992;2023-06-26T09:03:11;7.80;;;3.00;;
72198;SDS011;60103;51.014;16.992;2023-06-26T09:05:41;7.50;;;3.30;;
72198;SDS011;60103;51.014;16.992;2023-06-26T09:08:13;7.90;;;3.30;;
72198;SDS011;60103;51.014;16.992;2023-06-26T09:10:45;9.10;;;3.50;;
72198;SDS011;60103;51.014;16.992;2023-06-26T09:13:16;7.00;;;2.90;;
72198;SDS011;60103;51.014;16.992;2023-06-26T09:16:03;7.60;;;3.10;;
72198;SDS011;60103;51.014;16.992;2023-06-26T09:18:34;10.60;;;3.50;;
72198;SDS011;60103;51.014;16.992;2023-06-26T09:21:07;7.50;;;3.20;;
72198;SDS011;60103;51.014;16.992;2023-06-26T09:23:36;7.50;;;3.40;;
72198;SDS011;60103;51.014;16.992;2023-06-26T09:26:09;7.40;;;3.20;;
72198;SDS011;60103;51.014;16.992;2023-06-26T09:28:42;8.30;;;3.10;;
72198;SDS011;60103;51.014;16.992;2023-06-26T09:31:12;8.40;;;3.30;;
72198;SDS011;60103;51.014;16.992;2023-06-26T09:33:49;8.00;;;3.10;;
72198;SDS011;60103;51.014;16.992;2023-06-26T09:36:27;7.60;;;3.10;;
72198;SDS011;60103;51.014;16.992;2023-06-26T09:39:06;7.80;;;3.50;;
72198;SDS011;60103;51.014;16.992;2023-06-26T09:41:41;8.80;;;3.00;;
72198;SDS011;60103;51.014;16.992;2023-06-26T09:44:14;8.30;;;3.20;;
72198;SDS011;60103;51.014;16.992;2023-06-26T09:46:44;8.00;;;3.20;;
72198;SDS011;60103;51.014;16.992;2023-06-26T09:49:16;7.80;;;3.00;;
72198;SDS011;60103;51.014;16.992;2023-06-26T09:51:45;7.30;;;3.20;;
72198;SDS011;60103;51.014;16.992;2023-06-26T09:54:15;8.20;;;3.00;;
72198;SDS011;60103;51.014;16.992;2023-06-26T09:56:45;7.40;;;2.80;;
72198;SDS011;60103;51.014;16.992;2023-06-26T09:59:14;7.30;;;2.90;;
72198;SDS011;60103;51.014;16.992;2023-06-26T10:01:44;9.30;;;3.10;;
72198;SDS011;60103;51.014;16.992;2023-06-26T10:04:15;7.60;;;3.10;;
72198;SDS011;60103;51.014;16.992;2023-06-26T10:06:47;7.00;;;2.50;;
72198;SDS011;60103;51.014;16.992;2023-06-26T10:09:18;8.00;;;3.00;;
72198;SDS011;60103;51.014;16.992;2023-06-26T10:12:00;9.40;;;2.90;;
72198;SDS011;60103;51.014;16.992;2023-06-26T10:14:35;7.60;;;2.90;;
72198;SDS011;60103;51.014;16.992;2023-06-26T10:17:10;8.10;;;2.80;;
72198;SDS011;60103;51.014;16.992;2023-06-26T10:20:05;7.50;;;2.70;;
72198;SDS011;60103;51.014;16.992;2023-06-26T10:22:40;7.50;;;2.90;;
72198;SDS011;60103;51.014;16.992;2023-06-26T10:25:12;7.00;;;2.70;;
72198;SDS011;60103;51.014;16.992;2023-06-26T10:27:50;7.60;;;3.00;;
72198;SDS011;60103;51.014;16.992;2023-06-26T10:30:22;8.60;;;2.90;;
72198;SDS011;60103;51.014;16.992;2023-06-26T10:32:55;8.60;;;3.10;;
72198;SDS011;60103;51.014;16.992;2023-06-26T10:35:24;8.20;;;2.90;;
72198;SDS011;60103;51.014;16.992;2023-06-26T10:37:59;9.40;;;3.20;;
72198;SDS011;60103;51.014;16.992;2023-06-26T10:40:45;6.70;;;2.50;;
72198;SDS011;60103;51.014;16.992;2023-06-26T10:43:16;7.30;;;2.80;;
72198;SDS011;60103;51.014;16.992;2023-06-26T10:45:50;6.90;;;2.90;;
72198;SDS011;60103;51.014;16.992;2023-06-26T10:48:23;7.60;;;2.60;;
72198;SDS011;60103;51.014;16.992;2023-06-26T10:50:58;7.40;;;2.70;;
72198;SDS011;60103;51.014;16.992;2023-06-26T10:53:43;7.30;;;2.80;;
72198;SDS011;60103;51.014;16.992;2023-06-26T10:56:15;7.20;;;2.80;;
72198;SDS011;60103;51.014;16.992;2023-06-26T10:58:44;7.10;;;2.90;;
72198;SDS011;60103;51.014;16.992;2023-06-26T11:04:05;7.10;;;2.90;;
72198;SDS011;60103;51.014;16.992;2023-06-26T11:06:35;6.70;;;2.70;;
72198;SDS011;60103;51.014;16.992;2023-06-26T11:09:08;10.20;;;3.20;;
72198;SDS011;60103;51.014;16.992;2023-06-26T11:14:21;7.50;;;2.90;;
72198;SDS011;60103;51.014;16.992;2023-06-26T11:16:51;6.80;;;2.60;;
72198;SDS011;60103;51.014;16.992;2023-06-26T11:19:20;8.10;;;3.10;;
72198;SDS011;60103;51.014;16.992;2023-06-26T11:21:49;8.10;;;2.80;;
72198;SDS011;60103;51.014;16.992;2023-06-26T11:24:18;7.60;;;3.00;;
72198;SDS011;60103;51.014;16.992;2023-06-26T11:26:47;8.60;;;3.10;;
72198;SDS011;60103;51.014;16.992;2023-06-26T11:29:16;6.80;;;2.80;;
72198;SDS011;60103;51.014;16.992;2023-06-26T11:31:45;6.70;;;2.80;;
72198;SDS011;60103;51.014;16.992;2023-06-26T11:34:14;7.30;;;2.70;;
72198;SDS011;60103;51.014;16.992;2023-06-26T11:36:43;8.00;;;3.00;;
72198;SDS011;60103;51.014;16.992;2023-06-26T11:39:14;7.80;;;3.20;;
72198;SDS011;60103;51.014;16.992;2023-06-26T11:41:44;7.30;;;2.90;;
72198;SDS011;60103;51.014;16.992;2023-06-26T11:44:13;6.70;;;2.90;;
72198;SDS011;60103;51.014;16.992;2023-06-26T11:46:45;10.00;;;3.60;;
72198;SDS011;60103;51.014;16.992;2023-06-26T11:49:16;6.80;;;2.70;;
72198;SDS011;60103;51.014;16.992;2023-06-26T11:51:46;6.70;;;2.80;;
72198;SDS011;60103;51.014;16.992;2023-06-26T11:54:16;7.80;;;3.00;;
72198;SDS011;60103;51.014;16.992;2023-06-26T11:56:55;8.70;;;2.50;;
72198;SDS011;60103;51.014;16.992;2023-06-26T11:59:35;7.40;;;3.10;;
72198;SDS011;60103;51.014;16.992;2023-06-26T12:02:08;7.10;;;3.00;;
72198;SDS011;60103;51.014;16.992;2023-06-26T12:04:40;7.10;;;2.60;;
72198;SDS011;60103;51.014;16.992;2023-06-26T12:07:10;6.90;;;3.00;;
72198;SDS011;60103;51.014;16.992;2023-06-26T12:09:44;7.10;;;2.70;;
72198;SDS011;60103;51.014;16.992;2023-06-26T12:12:15;7.00;;;3.00;;
72198;SDS011;60103;51.014;16.992;2023-06-26T12:14:45;6.30;;;2.50;;
72198;SDS011;60103;51.014;16.992;2023-06-26T12:17:14;8.60;;;2.80;;
72198;SDS011;60103;51.014;16.992;2023-06-26T12:19:44;9.40;;;3.10;;
72198;SDS011;60103;51.014;16.992;2023-06-26T12:22:17;8.60;;;3.20;;
72198;SDS011;60103;51.014;16.992;2023-06-26T12:24:46;7.50;;;2.90;;
72198;SDS011;60103;51.014;16.992;2023-06-26T12:27:17;10.90;;;2.60;;
72198;SDS011;60103;51.014;16.992;2023-06-26T12:29:53;8.10;;;2.80;;
72198;SDS011;60103;51.014;16.992;2023-06-26T12:32:23;7.80;;;3.00;;
72198;SDS011;60103;51.014;16.992;2023-06-26T12:34:56;8.20;;;2.80;;
72198;SDS011;60103;51.014;16.992;2023-06-26T12:37:25;7.90;;;3.00;;
72198;SDS011;60103;51.014;16.992;2023-06-26T12:39:55;8.40;;;3.00;;
72198;SDS011;60103;51.014;16.992;2023-06-26T12:42:26;8.40;;;2.60;;
72198;SDS011;60103;51.014;16.992;2023-06-26T12:44:56;6.70;;;2.80;;
72198;SDS011;60103;51.014;16.992;2023-06-26T12:47:26;6.80;;;2.50;;
72198;SDS011;60103;51.014;16.992;2023-06-26T12:50:04;7.10;;;2.80;;
72198;SDS011;60103;51.014;16.992;2023-06-26T12:52:34;8.80;;;3.30;;
72198;SDS011;60103;51.014;16.992;2023-06-26T12:55:03;7.30;;;2.80;;
72198;SDS011;60103;51.014;16.992;2023-06-26T12:57:34;9.00;;;2.80;;
72198;SDS011;60103;51.014;16.992;2023-06-26T13:00:03;7.70;;;2.70;;
72198;SDS011;60103;51.014;16.992;2023-06-26T13:02:33;6.60;;;2.40;;
72198;SDS011;60103;51.014;16.992;2023-06-26T13:05:03;7.30;;;2.80;;
72198;SDS011;60103;51.014;16.992;2023-06-26T13:07:32;7.70;;;2.80;;
72198;SDS011;60103;51.014;16.992;2023-06-26T13:10:02;7.50;;;3.00;;
72198;SDS011;60103;51.014;16.992;2023-06-26T13:12:31;6.90;;;2.60;;
72198;SDS011;60103;51.014;16.992;2023-06-26T13:15:00;7.30;;;2.60;;
72198;SDS011;60103;51.014;16.992;2023-06-26T13:17:30;8.00;;;2.70;;
72198;SDS011;60103;51.014;16.992;2023-06-26T13:19:58;6.80;;;2.40;;
72198;SDS011;60103;51.014;16.992;2023-06-26T13:22:27;6.90;;;2.50;;
72198;SDS011;60103;51.014;16.992;2023-06-26T13:24:57;7.90;;;3.10;;
72198;SDS011;60103;51.014;16.992;2023-06-26T13:27:26;7.50;;;2.70;;
72198;SDS011;60103;51.014;16.992;2023-06-26T13:29:55;7.40;;;2.90;;
72198;SDS011;60103;51.014;16.992;2023-06-26T13:32:24;6.90;;;2.60;;
72198;SDS011;60103;51.014;16.992;2023-06-26T13:34:53;7.40;;;2.90;;
72198;SDS011;60103;51.014;16.992;2023-06-26T13:37:22;6.70;;;2.70;;
72198;SDS011;60103;51.014;16.992;2023-06-26T13:39:51;7.90;;;2.80;;
72198;SDS011;60103;51.014;16.992;2023-06-26T13:42:20;7.20;;;2.90;;
72198;SDS011;60103;51.014;16.992;2023-06-26T13:44:50;6.70;;;2.50;;
72198;SDS011;60103;51.014;16.992;2023-06-26T13:47:33;6.70;;;2.80;;
72198;SDS011;60103;51.014;16.992;2023-06-26T13:50:03;7.10;;;2.70;;
72198;SDS011;60103;51.014;16.992;2023-06-26T13:52:34;7.80;;;2.70;;
72198;SDS011;60103;51.014;16.992;2023-06-26T13:55:04;7.60;;;3.20;;
72198;SDS011;60103;51.014;16.992;2023-06-26T13:57:34;7.30;;;2.90;;
72198;SDS011;60103;51.014;16.992;2023-06-26T14:00:03;8.10;;;2.40;;
72198;SDS011;60103;51.014;16.992;2023-06-26T14:02:39;6.80;;;2.50;;
72198;SDS011;60103;51.014;16.992;2023-06-26T14:05:08;6.00;;;2.40;;
72198;SDS011;60103;51.014;16.992;2023-06-26T14:07:39;8.00;;;3.20;;
72198;SDS011;60103;51.014;16.992;2023-06-26T14:10:08;7.70;;;3.00;;
72198;SDS011;60103;51.014;16.992;2023-06-26T14:12:37;6.40;;;2.50;;
72198;SDS011;60103;51.014;16.992;2023-06-26T14:15:06;7.60;;;2.60;;
72198;SDS011;60103;51.014;16.992;2023-06-26T14:17:35;8.40;;;2.70;;
72198;SDS011;60103;51.014;16.992;2023-06-26T14:20:04;7.30;;;3.00;;
72198;SDS011;60103;51.014;16.992;2023-06-26T14:22:33;6.80;;;2.70;;
72198;SDS011;60103;51.014;16.992;2023-06-26T14:25:02;7.50;;;2.50;;
72198;SDS011;60103;51.014;16.992;2023-06-26T14:27:32;7.00;;;2.70;;
72198;SDS011;60103;51.014;16.992;2023-06-26T14:30:00;8.30;;;2.80;;
72198;SDS011;60103;51.014;16.992;2023-06-26T14:32:30;7.30;;;3.00;;
72198;SDS011;60103;51.014;16.992;2023-06-26T14:34:59;7.70;;;3.00;;
72198;SDS011;60103;51.014;16.992;2023-06-26T14:37:29;7.00;;;2.80;;
72198;SDS011;60103;51.014;16.992;2023-06-26T14:39:58;7.40;;;3.20;;
72198;SDS011;60103;51.014;16.992;2023-06-26T14:42:28;7.30;;;2.40;;
72198;SDS011;60103;51.014;16.992;2023-06-26T14:44:57;7.60;;;2.80;;
72198;SDS011;60103;51.014;16.992;2023-06-26T14:47:27;8.70;;;2.90;;
72198;SDS011;60103;51.014;16.992;2023-06-26T14:49:56;8.80;;;3.20;;
72198;SDS011;60103;51.014;16.992;2023-06-26T14:52:25;7.80;;;2.90;;
72198;SDS011;60103;51.014;16.992;2023-06-26T14:54:54;7.10;;;2.90;;
72198;SDS011;60103;51.014;16.992;2023-06-26T14:57:23;7.50;;;3.10;;
72198;SDS011;60103;51.014;16.992;2023-06-26T14:59:52;8.20;;;2.70;;
72198;SDS011;60103;51.014;16.992;2023-06-26T15:02:20;8.50;;;3.60;;
72198;SDS011;60103;51.014;16.992;2023-06-26T15:04:50;7.50;;;2.80;;